Time,TemperatureF,DewpointF,PressureIn,WindDirection,WindDirectionDegrees,WindSpeedMPH,WindSpeedGustMPH,Humidity,HourlyPrecipIn,Conditions,Clouds,dailyrainin,SoftwareType,DateUTC
2013-02-23 00:00:00,71.3,67.6,30.01,South,173,2.3,2.3,88,0.00,CLR,OVC,0.00,WeatherDisplay:10.37,2013-02-23 05:00:00,
2013-02-23 00:05:00,71.3,67.6,30.01,South,176,3.4,3.4,88,0.00,SCT,OVC,0.00,WeatherDisplay:10.37,2013-02-23 05:05:00,
2013-02-23 00:10:00,71.3,67.6,30.01,South,175,3.4,3.4,88,0.00,SCT,OVC,0.00,WeatherDisplay:10.37,2013-02-23 05:10:00,
2013-02-23 00:15:00,71.2,67.5,30.00,South,177,2.3,2.3,88,0.00,SCT,OVC,0.00,WeatherDisplay:10.37,2013-02-23 05:15:00,
2013-02-23 00:20:00,71.1,67.4,30.00,South,173,2.3,2.3,88,0.00,SCT,OVC,0.00,WeatherDisplay:10.37,2013-02-23 05:20:00,
2013-02-23 00:25:00,71.0,67.3,30.00,South,170,2.3,2.3,88,0.00,SCT,OVC,0.00,WeatherDisplay:10.37,2013-02-23 05:25:00,
2013-02-23 00:30:00,71.0,67.3,30.00,South,173,1.0,2.0,88,0.00,SCT,OVC,0.00,WeatherDisplay:10.37,2013-02-23 05:30:00,
2013-02-23 00:35:00,70.9,67.2,30.00,South,176,3.4,3.4,88,0.00,SCT,OVC,0.00,WeatherDisplay:10.37,2013-02-23 05:35:00,
2013-02-23 00:40:00,70.8,67.1,30.00,South,184,2.3,2.3,88,0.00,SCT,OVC,0.00,WeatherDisplay:10.37,2013-02-23 05:40:00,
2013-02-23 00:45:00,70.8,67.1,30.00,South,173,2.3,2.3,88,0.00,SCT,OVC,0.00,WeatherDisplay:10.37,2013-02-23 05:45:00,
2013-02-23 00:50:00,70.8,67.1,30.00,South,175,2.3,2.3,88,0.00,SCT,OVC,0.00,WeatherDisplay:10.37,2013-02-23 05:50:00,
2013-02-23 00:55:00,70.7,67.0,30.01,South,183,2.3,2.3,88,0.00,SCT,OVC,0.00,WeatherDisplay:10.37,2013-02-23 05:55:00,
2013-02-23 01:00:00,70.7,67.0,30.01,South,175,1.1,1.1,88,0.00,SCT,OVC,0.00,WeatherDisplay:10.37,2013-02-23 06:00:00,
2013-02-23 01:05:00,70.6,66.9,30.01,South,175,1.1,1.1,88,0.00,FEW,OVC,0.00,WeatherDisplay:10.37,2013-02-23 06:05:00,
2013-02-23 01:10:00,70.5,66.8,30.01,South,179,2.3,2.3,88,0.00,FEW,OVC,0.00,WeatherDisplay:10.37,2013-02-23 06:10:00,
2013-02-23 01:15:00,70.5,66.8,30.01,South,181,2.3,2.3,88,0.00,FEW,OVC,0.00,WeatherDisplay:10.37,2013-02-23 06:15:00,
2013-02-23 01:20:00,70.4,66.7,30.00,South,179,2.3,2.3,88,0.00,FEW,OVC,0.00,WeatherDisplay:10.37,2013-02-23 06:20:00,
2013-02-23 01:25:00,70.3,66.6,30.00,South,173,2.3,2.3,88,0.00,FEW,OVC,0.00,WeatherDisplay:10.37,2013-02-23 06:25:00,
2013-02-23 01:30:00,70.2,66.5,30.00,South,175,1.1,1.1,88,0.00,FEW,OVC,0.00,WeatherDisplay:10.37,2013-02-23 06:30:00,
2013-02-23 01:35:00,70.2,66.5,30.00,South,177,2.3,2.3,88,0.00,FEW,OVC,0.00,WeatherDisplay:10.37,2013-02-23 06:35:00,
2013-02-23 01:40:00,70.1,66.4,30.00,South,190,2.3,2.3,88,0.00,FEW,OVC,0.00,WeatherDisplay:10.37,2013-02-23 06:40:00,
2013-02-23 01:45:00,70.1,66.4,30.00,South,175,1.1,1.1,88,0.00,CLR,OVC,0.00,WeatherDisplay:10.37,2013-02-23 06:45:00,
2013-02-23 01:50:00,70.0,66.3,30.00,South,177,2.3,2.3,88,0.00,FEW,OVC,0.00,WeatherDisplay:10.37,2013-02-23 06:50:00,
2013-02-23 01:55:00,69.9,66.2,30.00,South,179,2.3,2.3,88,0.00,FEW,OVC,0.00,WeatherDisplay:10.37,2013-02-23 06:55:00,
2013-02-23 02:00:00,69.9,66.2,30.00,South,173,2.3,2.3,88,0.00,FEW,OVC,0.00,WeatherDisplay:10.37,2013-02-23 07:00:00,
2013-02-23 02:05:00,69.9,66.2,30.00,South,175,2.3,2.3,88,0.00,FEW,OVC,0.00,WeatherDisplay:10.37,2013-02-23 07:05:00,
2013-02-23 02:10:00,69.9,66.2,29.99,South,175,2.3,2.3,88,0.00,FEW,OVC,0.00,WeatherDisplay:10.37,2013-02-23 07:10:00,
2013-02-23 02:15:00,69.9,66.2,29.99,South,173,1.1,1.1,88,0.00,FEW,OVC,0.00,WeatherDisplay:10.37,2013-02-23 07:15:00,
2013-02-23 02:20:00,69.8,66.1,29.99,South,173,2.0,2.0,88,0.00,OVC,OVC,0.00,WeatherDisplay:10.37,2013-02-23 07:20:00,
2013-02-23 02:25:00,69.7,66.0,29.99,SSW,194,1.1,1.1,88,0.00,OVC,OVC,0.00,WeatherDisplay:10.37,2013-02-23 07:25:00,
2013-02-23 02:30:00,69.7,66.0,29.99,South,180,2.3,2.3,88,0.00,OVC,OVC,0.00,WeatherDisplay:10.37,2013-02-23 07:30:00,
2013-02-23 02:35:00,69.8,66.1,29.99,South,179,2.3,2.3,88,0.00,OVC,OVC,0.00,WeatherDisplay:10.37,2013-02-23 07:35:00,
2013-02-23 02:40:00,69.8,66.1,29.99,South,177,2.3,2.3,88,0.00,OVC,OVC,0.00,WeatherDisplay:10.37,2013-02-23 07:40:00,
2013-02-23 02:45:00,69.9,66.2,29.99,South,173,3.4,3.4,88,0.00,OVC,OVC,0.00,WeatherDisplay:10.37,2013-02-23 07:45:00,
2013-02-23 02:50:00,70.1,66.4,29.99,South,179,3.4,3.4,88,0.00,OVC,OVC,0.00,WeatherDisplay:10.37,2013-02-23 07:50:00,
2013-02-23 02:55:00,70.2,66.5,29.99,South,180,3.4,3.4,88,0.00,OVC,OVC,0.00,WeatherDisplay:10.37,2013-02-23 07:55:00,
2013-02-23 03:00:00,70.2,66.5,29.99,South,180,2.3,2.3,88,0.00,OVC,OVC,0.00,WeatherDisplay:10.37,2013-02-23 08:00:00,
2013-02-23 03:05:00,70.1,66.4,29.98,South,180,3.4,3.4,88,0.00,OVC,OVC,0.00,WeatherDisplay:10.37,2013-02-23 08:05:00,
2013-02-23 03:10:00,69.9,66.2,29.98,South,173,2.3,2.3,88,0.00,OVC,OVC,0.00,WeatherDisplay:10.37,2013-02-23 08:10:00,
2013-02-23 03:15:00,69.8,66.1,29.98,South,180,2.3,2.3,88,0.00,OVC,OVC,0.00,WeatherDisplay:10.37,2013-02-23 08:15:00,
2013-02-23 03:20:00,69.7,66.0,29.98,South,184,2.0,2.0,88,0.00,OVC,OVC,0.00,WeatherDisplay:10.37,2013-02-23 08:20:00,
2013-02-23 03:25:00,69.6,65.9,29.98,South,176,2.3,2.3,88,0.00,OVC,OVC,0.00,WeatherDisplay:10.37,2013-02-23 08:25:00,
2013-02-23 03:30:00,69.6,65.9,29.97,South,175,2.3,2.3,88,0.00,OVC,OVC,0.00,WeatherDisplay:10.37,2013-02-23 08:30:00,
2013-02-23 03:35:00,69.5,65.8,29.98,South,181,1.1,1.1,88,0.00,OVC,OVC,0.00,WeatherDisplay:10.37,2013-02-23 08:35:00,
2013-02-23 03:40:00,69.5,65.8,29.98,SSE,157,3.4,3.4,88,0.00,OVC,OVC,0.00,WeatherDisplay:10.37,2013-02-23 08:40:00,
2013-02-23 03:45:00,69.5,65.8,29.97,South,178,4.0,4.0,88,0.00,OVC,OVC,0.00,WeatherDisplay:10.37,2013-02-23 08:45:00,
2013-02-23 03:50:00,69.5,66.1,29.97,South,171,2.3,2.3,89,0.00,OVC,OVC,0.00,WeatherDisplay:10.37,2013-02-23 08:50:00,
2013-02-23 03:55:00,69.6,66.2,29.97,South,173,2.3,2.3,89,0.00,OVC,OVC,0.00,WeatherDisplay:10.37,2013-02-23 08:55:00,
2013-02-23 04:00:00,69.5,66.1,29.97,South,181,3.4,3.4,89,0.00,OVC,OVC,0.00,WeatherDisplay:10.37,2013-02-23 09:00:00,
2013-02-23 04:05:00,69.4,66.0,29.97,SSW,192,2.3,2.3,89,0.00,OVC,OVC,0.00,WeatherDisplay:10.37,2013-02-23 09:05:00,
2013-02-23 04:10:00,69.4,66.0,29.97,SSE,166,3.4,3.4,89,0.00,OVC,OVC,0.00,WeatherDisplay:10.37,2013-02-23 09:10:00,
2013-02-23 04:15:00,69.5,66.1,29.97,South,181,2.3,2.3,89,0.00,OVC,OVC,0.00,WeatherDisplay:10.37,2013-02-23 09:15:00,
2013-02-23 04:20:00,69.5,66.1,29.97,South,179,3.4,3.4,89,0.00,OVC,OVC,0.00,WeatherDisplay:10.37,2013-02-23 09:20:00,
2013-02-23 04:25:00,69.5,66.1,29.97,South,183,2.3,2.4,89,0.00,OVC,OVC,0.00,WeatherDisplay:10.37,2013-02-23 09:25:00,
2013-02-23 04:30:00,69.5,66.1,29.97,South,170,3.4,3.4,89,0.00,OVC,OVC,0.00,WeatherDisplay:10.37,2013-02-23 09:30:00,
2013-02-23 04:35:00,69.6,66.2,29.96,South,176,3.4,3.4,89,0.00,BKN,OVC,0.00,WeatherDisplay:10.37,2013-02-23 09:35:00,
2013-02-23 04:40:00,69.5,66.1,29.96,South,181,4.0,4.0,89,0.00,BKN,OVC,0.00,WeatherDisplay:10.37,2013-02-23 09:40:00,
2013-02-23 04:45:00,69.5,66.1,29.96,South,177,3.4,3.4,89,0.00,BKN,OVC,0.00,WeatherDisplay:10.37,2013-02-23 09:45:00,
2013-02-23 04:50:00,69.5,66.1,29.96,South,185,3.4,3.4,89,0.00,BKN,OVC,0.00,WeatherDisplay:10.37,2013-02-23 09:50:00,
2013-02-23 04:55:00,69.4,66.0,29.96,South,187,3.4,3.4,89,0.00,BKN,OVC,0.00,WeatherDisplay:10.37,2013-02-23 09:55:00,
2013-02-23 05:00:00,69.4,66.0,29.96,South,180,4.0,4.0,89,0.00,BKN,OVC,0.00,WeatherDisplay:10.37,2013-02-23 10:00:00,
2013-02-23 05:05:00,69.5,66.1,29.96,South,176,3.4,3.4,89,0.00,FEW,OVC,0.00,WeatherDisplay:10.37,2013-02-23 10:05:00,
2013-02-23 05:10:00,69.6,66.2,29.96,South,188,3.4,3.4,89,0.00,FEW,OVC,0.00,WeatherDisplay:10.37,2013-02-23 10:10:00,
2013-02-23 05:15:00,69.6,66.2,29.96,SSW,201,3.4,3.4,89,0.00,FEW,OVC,0.00,WeatherDisplay:10.37,2013-02-23 10:15:00,
2013-02-23 05:20:00,69.7,66.3,29.96,South,177,3.4,3.4,89,0.00,FEW,OVC,0.00,WeatherDisplay:10.37,2013-02-23 10:20:00,
2013-02-23 05:25:00,69.8,66.4,29.96,South,173,3.4,3.4,89,0.00,FEW,OVC,0.00,WeatherDisplay:10.37,2013-02-23 10:25:00,
2013-02-23 05:30:00,69.8,66.4,29.96,South,186,3.4,3.4,89,0.00,FEW,OVC,0.00,WeatherDisplay:10.37,2013-02-23 10:30:00,
2013-02-23 05:35:00,69.9,66.2,29.96,SSW,212,4.6,4.6,88,0.00,FEW,OVC,0.00,WeatherDisplay:10.37,2013-02-23 10:35:00,
2013-02-23 05:40:00,70.0,66.3,29.96,South,180,3.4,3.4,88,0.00,FEW,OVC,0.00,WeatherDisplay:10.37,2013-02-23 10:40:00,
2013-02-23 05:45:00,69.9,66.2,29.96,South,176,3.4,3.4,88,0.00,FEW,OVC,0.00,WeatherDisplay:10.37,2013-02-23 10:45:00,
2013-02-23 05:50:00,69.8,66.1,29.96,South,177,3.4,3.4,88,0.00,BKN,OVC,0.00,WeatherDisplay:10.37,2013-02-23 10:50:00,
2013-02-23 05:55:00,69.8,66.1,29.97,SSW,193,4.6,4.6,88,0.00,BKN,OVC,0.00,WeatherDisplay:10.37,2013-02-23 10:55:00,
2013-02-23 06:00:00,69.9,66.2,29.97,SSW,196,3.4,3.4,88,0.00,BKN,OVC,0.00,WeatherDisplay:10.37,2013-02-23 11:00:00,
2013-02-23 06:05:00,69.9,66.2,29.96,SSW,210,4.0,4.0,88,0.00,OVC,OVC,0.00,WeatherDisplay:10.37,2013-02-23 11:05:00,
2013-02-23 06:10:00,69.9,66.2,29.97,SSW,192,3.4,3.4,88,0.00,OVC,OVC,0.00,WeatherDisplay:10.37,2013-02-23 11:10:00,
2013-02-23 06:15:00,69.8,66.1,29.97,South,177,2.3,2.3,88,0.00,OVC,OVC,0.00,WeatherDisplay:10.37,2013-02-23 11:15:00,
2013-02-23 06:20:00,69.7,66.0,29.97,South,175,2.3,2.3,88,0.00,OVC,OVC,0.00,WeatherDisplay:10.37,2013-02-23 11:20:00,
2013-02-23 06:25:00,69.6,65.9,29.97,South,190,3.4,3.4,88,0.00,OVC,OVC,0.00,WeatherDisplay:10.37,2013-02-23 11:25:00,
2013-02-23 06:30:00,69.5,65.8,29.97,South,187,3.0,3.0,88,0.00,OVC,OVC,0.00,WeatherDisplay:10.37,2013-02-23 11:30:00,
2013-02-23 06:35:00,69.4,65.7,29.97,SSW,192,2.3,2.3,88,0.00,OVC,OVC,0.00,WeatherDisplay:10.37,2013-02-23 11:35:00,
2013-02-23 06:40:00,69.4,65.7,29.98,South,176,3.4,3.4,88,0.00,OVC,OVC,0.00,WeatherDisplay:10.37,2013-02-23 11:40:00,
2013-02-23 06:45:00,69.3,65.6,29.97,South,177,2.3,2.3,88,0.00,OVC,OVC,0.00,WeatherDisplay:10.37,2013-02-23 11:45:00,
2013-02-23 06:49:00,69.4,65.7,29.98,South,179,3.4,3.4,88,0.00,OVC,OVC,0.00,WeatherDisplay:10.37,2013-02-23 11:49:00,
2013-02-23 06:50:00,69.4,65.7,29.98,South,179,3.4,3.4,88,0.00,OVC,OVC,0.00,WeatherDisplay:10.37,2013-02-23 11:50:00,
2013-02-23 06:55:00,69.4,65.7,29.98,South,179,3.4,3.4,88,0.00,OVC,OVC,0.00,WeatherDisplay:10.37,2013-02-23 11:55:00,
2013-02-23 07:01:00,69.6,65.9,29.98,South,177,7.0,7.0,88,0.00,CLR,OVC,0.00,WeatherDisplay:10.37,2013-02-23 12:01:00,
2013-02-23 07:06:00,69.7,66.0,29.98,South,185,4.6,4.6,88,0.00,OVC,OVC,0.00,WeatherDisplay:10.37,2013-02-23 12:06:00,
2013-02-23 07:11:00,69.7,66.0,29.98,SSW,201,4.6,4.6,88,0.00,OVC,OVC,0.00,WeatherDisplay:10.37,2013-02-23 12:11:00,
2013-02-23 07:16:00,69.8,66.1,29.98,SSW,194,3.4,3.4,88,0.00,OVC,OVC,0.00,WeatherDisplay:10.37,2013-02-23 12:16:00,
2013-02-23 07:21:00,69.9,66.2,29.98,South,187,3.4,3.4,88,0.00,OVC,OVC,0.00,WeatherDisplay:10.37,2013-02-23 12:21:00,
2013-02-23 07:26:00,70.0,66.3,29.98,South,170,3.4,3.4,88,0.00,OVC,OVC,0.00,WeatherDisplay:10.37,2013-02-23 12:26:00,
2013-02-23 07:31:00,70.0,66.3,29.98,South,186,3.4,3.4,88,0.00,OVC,OVC,0.00,WeatherDisplay:10.37,2013-02-23 12:31:00,
2013-02-23 07:36:00,70.0,66.3,29.98,South,184,3.4,3.4,88,0.00,OVC,OVC,0.00,WeatherDisplay:10.37,2013-02-23 12:36:00,
2013-02-23 07:41:00,70.1,66.4,29.98,South,183,3.4,3.4,88,0.00,OVC,OVC,0.00,WeatherDisplay:10.37,2013-02-23 12:41:00,
2013-02-23 07:46:00,70.2,66.5,29.99,South,176,4.0,4.0,88,0.00,OVC,OVC,0.00,WeatherDisplay:10.37,2013-02-23 12:46:00,
2013-02-23 07:51:00,70.3,66.6,29.99,SSW,192,4.0,4.0,88,0.00,OVC,OVC,0.00,WeatherDisplay:10.37,2013-02-23 12:51:00,
2013-02-23 07:56:00,70.4,66.3,29.99,South,182,3.4,3.4,87,0.00,OVC,OVC,0.00,WeatherDisplay:10.37,2013-02-23 12:56:00,
2013-02-23 08:01:00,70.5,66.4,29.99,South,186,3.4,3.4,87,0.00,BKN,OVC,0.00,WeatherDisplay:10.37,2013-02-23 13:01:00,
2013-02-23 08:06:00,70.7,66.6,29.99,South,187,4.0,4.0,87,0.00,BKN,OVC,0.00,WeatherDisplay:10.37,2013-02-23 13:06:00,
2013-02-23 08:11:00,70.8,66.7,30.00,SSW,194,3.4,3.4,87,0.00,BKN,OVC,0.00,WeatherDisplay:10.37,2013-02-23 13:11:00,
2013-02-23 08:16:00,70.8,66.7,30.00,SSW,206,4.0,4.0,87,0.00,BKN,OVC,0.00,WeatherDisplay:10.37,2013-02-23 13:16:00,
2013-02-23 08:21:00,70.9,66.8,30.00,South,188,3.4,3.4,87,0.00,BKN,OVC,0.00,WeatherDisplay:10.37,2013-02-23 13:21:00,
2013-02-23 08:26:00,71.0,66.9,30.00,South,185,3.4,3.4,87,0.00,BKN,OVC,0.00,WeatherDisplay:10.37,2013-02-23 13:26:00,
2013-02-23 08:31:00,71.1,67.0,30.00,SSW,198,3.4,3.4,87,0.00,BKN,OVC,0.00,WeatherDisplay:10.37,2013-02-23 13:31:00,
2013-02-23 08:36:00,71.1,67.0,30.01,SSW,193,3.4,3.4,87,0.00,BKN,OVC,0.00,WeatherDisplay:10.37,2013-02-23 13:36:00,
2013-02-23 08:41:00,71.2,67.1,30.01,SSW,193,3.4,3.4,87,0.00,BKN,OVC,0.00,WeatherDisplay:10.37,2013-02-23 13:41:00,
2013-02-23 08:46:00,71.5,67.1,30.01,SSW,204,4.0,4.0,86,0.00,BKN,OVC,0.00,WeatherDisplay:10.37,2013-02-23 13:46:00,
2013-02-23 08:51:00,71.6,67.2,30.01,SSW,192,3.4,3.4,86,0.00,BKN,OVC,0.00,WeatherDisplay:10.37,2013-02-23 13:51:00,
2013-02-23 08:56:00,71.6,67.2,30.01,South,177,3.4,3.4,86,0.00,BKN,OVC,0.00,WeatherDisplay:10.37,2013-02-23 13:56:00,
2013-02-23 09:01:00,71.7,67.3,30.00,SSW,200,3.4,3.4,86,0.00,BKN,OVC,0.00,WeatherDisplay:10.37,2013-02-23 14:01:00,
2013-02-23 09:06:00,71.7,67.3,30.01,South,184,3.4,3.4,86,0.00,BKN,OVC,0.00,WeatherDisplay:10.37,2013-02-23 14:06:00,
2013-02-23 09:11:00,71.8,67.4,30.01,SSW,211,4.0,4.0,86,0.00,BKN,OVC,0.00,WeatherDisplay:10.37,2013-02-23 14:11:00,
2013-02-23 09:16:00,72.0,67.6,30.01,South,191,4.0,4.0,86,0.00,BKN,OVC,0.00,WeatherDisplay:10.37,2013-02-23 14:16:00,
2013-02-23 09:21:00,72.2,67.4,30.00,South,182,4.6,4.6,85,0.00,BKN,OVC,0.00,WeatherDisplay:10.37,2013-02-23 14:21:00,
2013-02-23 09:26:00,72.3,67.5,30.01,SSW,211,4.0,4.0,85,0.00,BKN,OVC,0.00,WeatherDisplay:10.37,2013-02-23 14:26:00,
2013-02-23 09:31:00,72.3,67.5,30.00,South,180,4.6,4.6,85,0.00,BKN,OVC,0.00,WeatherDisplay:10.37,2013-02-23 14:31:00,
2013-02-23 09:36:00,72.4,67.6,30.00,South,185,5.8,5.8,85,0.00,BKN,OVC,0.00,WeatherDisplay:10.37,2013-02-23 14:36:00,
2013-02-23 09:41:00,72.7,67.6,30.00,SSW,198,3.4,3.4,84,0.00,BKN,OVC,0.00,WeatherDisplay:10.37,2013-02-23 14:41:00,
2013-02-23 09:46:00,72.8,67.7,30.00,SSW,201,3.4,3.4,84,0.00,BKN,OVC,0.00,WeatherDisplay:10.37,2013-02-23 14:46:00,
2013-02-23 09:51:00,73.0,67.9,30.00,South,177,6.0,6.0,84,0.00,BKN,OVC,0.00,WeatherDisplay:10.37,2013-02-23 14:51:00,
2013-02-23 09:56:00,73.2,67.7,30.00,South,174,5.8,5.8,83,0.00,BKN,OVC,0.00,WeatherDisplay:10.37,2013-02-23 14:56:00,
2013-02-23 10:01:00,73.5,68.0,30.00,South,190,5.0,5.0,83,0.00,BKN,OVC,0.00,WeatherDisplay:10.37,2013-02-23 15:01:00,
2013-02-23 10:06:00,73.6,68.1,29.99,South,173,7.0,7.0,83,0.00,BKN,OVC,0.00,WeatherDisplay:10.37,2013-02-23 15:06:00,
2013-02-23 10:11:00,74.1,68.3,29.99,South,177,8.1,8.1,82,0.00,BKN,OVC,0.00,WeatherDisplay:10.37,2013-02-23 15:11:00,
2013-02-23 10:16:00,74.8,68.6,30.00,South,169,7.0,7.0,81,0.00,BKN,OVC,0.00,WeatherDisplay:10.37,2013-02-23 15:16:00,
2013-02-23 10:21:00,75.0,68.4,29.99,SW,233,4.6,4.6,80,0.00,BKN,OVC,0.00,WeatherDisplay:10.37,2013-02-23 15:21:00,
2013-02-23 10:26:00,75.2,68.2,29.99,South,181,6.9,6.9,79,0.00,BKN,OVC,0.00,WeatherDisplay:10.37,2013-02-23 15:26:00,
2013-02-23 10:31:00,75.3,68.0,29.99,South,175,6.0,6.0,78,0.00,BKN,OVC,0.00,WeatherDisplay:10.37,2013-02-23 15:31:00,
2013-02-23 10:36:00,75.5,68.2,29.99,SSW,196,9.2,9.2,78,0.00,BKN,OVC,0.00,WeatherDisplay:10.37,2013-02-23 15:36:00,
2013-02-23 10:41:00,75.7,68.0,29.99,SSW,208,5.0,5.0,77,0.00,BKN,OVC,0.00,WeatherDisplay:10.37,2013-02-23 15:41:00,
2013-02-23 10:46:00,75.6,67.9,29.99,South,189,4.6,4.6,77,0.00,BKN,OVC,0.00,WeatherDisplay:10.37,2013-02-23 15:46:00,
2013-02-23 10:51:00,75.8,68.1,29.98,South,180,4.6,4.6,77,0.00,BKN,OVC,0.00,WeatherDisplay:10.37,2013-02-23 15:51:00,
2013-02-23 10:56:00,76.7,68.9,29.99,SW,227,4.0,4.0,77,0.00,BKN,OVC,0.00,WeatherDisplay:10.37,2013-02-23 15:56:00,
2013-02-23 11:01:00,77.2,68.3,29.99,SSW,202,6.9,6.9,74,0.00,BKN,OVC,0.00,WeatherDisplay:10.37,2013-02-23 16:01:00,
2013-02-23 11:06:00,76.7,68.2,29.98,SSW,200,6.9,6.9,75,0.00,BKN,OVC,0.00,WeatherDisplay:10.37,2013-02-23 16:06:00,
2013-02-23 11:11:00,76.9,68.4,29.98,SSW,212,4.6,4.6,75,0.00,BKN,OVC,0.00,WeatherDisplay:10.37,2013-02-23 16:11:00,
2013-02-23 11:16:00,77.6,68.7,29.98,SSW,208,6.9,6.9,74,0.00,BKN,OVC,0.00,WeatherDisplay:10.37,2013-02-23 16:16:00,
2013-02-23 11:21:00,78.0,68.6,29.98,SSW,209,4.0,4.0,73,0.00,BKN,OVC,0.00,WeatherDisplay:10.37,2013-02-23 16:21:00,
2013-02-23 11:26:00,78.3,68.9,29.98,SW,220,3.4,3.4,73,0.00,BKN,OVC,0.00,WeatherDisplay:10.37,2013-02-23 16:26:00,
2013-02-23 11:31:00,78.6,68.8,29.98,SSW,209,5.0,5.0,72,0.00,BKN,OVC,0.00,WeatherDisplay:10.37,2013-02-23 16:31:00,
2013-02-23 11:36:00,79.1,68.9,29.98,South,172,6.9,6.9,71,0.00,BKN,OVC,0.00,WeatherDisplay:10.37,2013-02-23 16:36:00,
2013-02-23 11:41:00,79.5,68.9,29.98,SW,234,3.4,3.4,70,0.00,BKN,OVC,0.00,WeatherDisplay:10.37,2013-02-23 16:41:00,
2013-02-23 11:46:00,79.4,68.8,29.98,SSW,196,6.9,6.9,70,0.00,BKN,OVC,0.00,WeatherDisplay:10.37,2013-02-23 16:46:00,
2013-02-23 11:51:00,79.4,68.8,29.97,SW,232,4.6,4.6,70,0.00,BKN,OVC,0.00,WeatherDisplay:10.37,2013-02-23 16:51:00,
2013-02-23 11:56:00,79.3,68.7,29.97,SSW,211,4.6,4.6,70,0.00,BKN,OVC,0.00,WeatherDisplay:10.37,2013-02-23 16:56:00,
2013-02-23 12:01:00,79.7,68.6,29.97,SSW,197,5.0,5.0,69,0.00,SCT,OVC,0.00,WeatherDisplay:10.37,2013-02-23 17:01:00,
2013-02-23 12:04:00,79.8,68.3,29.97,South,173,7.0,7.0,68,0.00,SCT,OVC,0.00,WeatherDisplay:10.37,2013-02-23 17:04:00,
2013-02-23 12:06:00,79.8,68.3,29.97,South,173,7.0,7.0,68,0.00,SCT,OVC,0.00,WeatherDisplay:10.37,2013-02-23 17:06:00,
2013-02-23 12:11:00,79.8,68.3,29.97,South,173,7.0,7.0,68,0.00,SCT,OVC,0.00,WeatherDisplay:10.37,2013-02-23 17:11:00,
2013-02-23 12:17:00,80.0,68.1,29.96,SSW,202,7.0,7.0,67,0.00,CLR,OVC,0.00,WeatherDisplay:10.37,2013-02-23 17:17:00,
2013-02-23 12:22:00,80.2,68.7,29.96,SW,233,4.0,4.0,68,0.00,SCT,OVC,0.00,WeatherDisplay:10.37,2013-02-23 17:22:00,
2013-02-23 12:27:00,80.6,68.6,29.96,South,182,4.6,4.6,67,0.00,SCT,OVC,0.00,WeatherDisplay:10.37,2013-02-23 17:27:00,
2013-02-23 12:32:00,80.8,68.8,29.95,South,191,5.0,5.0,67,0.00,SCT,OVC,0.00,WeatherDisplay:10.37,2013-02-23 17:32:00,
2013-02-23 12:37:00,81.0,68.6,29.95,SSW,196,3.4,3.4,66,0.00,SCT,OVC,0.00,WeatherDisplay:10.37,2013-02-23 17:37:00,
2013-02-23 12:42:00,81.4,68.5,29.95,SSW,198,6.9,6.9,65,0.00,SCT,OVC,0.00,WeatherDisplay:10.37,2013-02-23 17:42:00,
2013-02-23 12:47:00,81.5,68.6,29.95,SSW,212,5.8,5.8,65,0.00,SCT,OVC,0.00,WeatherDisplay:10.37,2013-02-23 17:47:00,
2013-02-23 12:52:00,81.8,68.4,29.95,SSW,210,4.0,4.0,64,0.00,SCT,OVC,0.00,WeatherDisplay:10.37,2013-02-23 17:52:00,
2013-02-23 12:57:00,82.0,68.6,29.94,SSW,211,6.0,6.0,64,0.00,SCT,OVC,0.00,WeatherDisplay:10.37,2013-02-23 17:57:00,
2013-02-23 13:02:00,82.2,68.3,29.94,SSW,203,4.0,4.0,63,0.00,BKN,OVC,0.00,WeatherDisplay:10.37,2013-02-23 18:02:00,
2013-02-23 13:07:00,82.4,68.1,29.93,SSW,199,5.8,5.8,62,0.00,BKN,OVC,0.00,WeatherDisplay:10.37,2013-02-23 18:07:00,
2013-02-23 13:12:00,82.6,68.3,29.93,SW,222,4.0,4.0,62,0.00,BKN,OVC,0.00,WeatherDisplay:10.37,2013-02-23 18:12:00,
2013-02-23 13:17:00,82.8,68.4,29.93,SSE,147,5.8,5.8,62,0.00,BKN,OVC,0.00,WeatherDisplay:10.37,2013-02-23 18:17:00,
2013-02-23 13:22:00,82.6,68.3,29.93,South,189,3.4,3.4,62,0.00,BKN,OVC,0.00,WeatherDisplay:10.37,2013-02-23 18:22:00,
2013-02-23 13:27:00,82.7,68.4,29.92,SSW,206,4.6,4.6,62,0.00,BKN,OVC,0.00,WeatherDisplay:10.37,2013-02-23 18:27:00,
2013-02-23 13:32:00,83.1,68.3,29.92,SW,222,5.0,5.0,61,0.00,BKN,OVC,0.00,WeatherDisplay:10.37,2013-02-23 18:32:00,
2013-02-23 13:37:00,83.4,68.1,29.91,SSW,194,3.4,3.4,60,0.00,BKN,OVC,0.00,WeatherDisplay:10.37,2013-02-23 18:37:00,
2013-02-23 13:42:00,83.6,67.8,29.91,SSE,167,5.8,5.8,59,0.00,BKN,OVC,0.00,WeatherDisplay:10.37,2013-02-23 18:42:00,
2013-02-23 13:47:00,84.0,68.1,29.91,South,181,5.8,5.8,59,0.00,BKN,OVC,0.00,WeatherDisplay:10.37,2013-02-23 18:47:00,
2013-02-23 13:52:00,84.0,67.6,29.91,SSW,208,4.6,4.6,58,0.00,BKN,OVC,0.00,WeatherDisplay:10.37,2013-02-23 18:52:00,
2013-02-23 13:57:00,84.4,68.0,29.91,SW,215,2.3,2.3,58,0.00,BKN,OVC,0.00,WeatherDisplay:10.37,2013-02-23 18:57:00,
2013-02-23 14:02:00,84.9,68.5,29.90,SW,220,4.0,4.0,58,0.00,SCT,OVC,0.00,WeatherDisplay:10.37,2013-02-23 19:02:00,
2013-02-23 14:07:00,84.9,68.0,29.90,SSE,159,3.4,3.4,57,0.00,SCT,OVC,0.00,WeatherDisplay:10.37,2013-02-23 19:07:00,
2013-02-23 14:12:00,84.8,67.4,29.90,SW,217,5.8,5.8,56,0.00,SCT,OVC,0.00,WeatherDisplay:10.37,2013-02-23 19:12:00,
2013-02-23 14:17:00,84.3,66.9,29.90,South,181,3.4,3.4,56,0.00,SCT,OVC,0.00,WeatherDisplay:10.37,2013-02-23 19:17:00,
2013-02-23 14:22:00,84.8,67.4,29.89,South,173,6.0,6.0,56,0.00,SCT,OVC,0.00,WeatherDisplay:10.37,2013-02-23 19:22:00,
2013-02-23 14:27:00,85.0,67.5,29.89,SSE,163,4.0,4.0,56,0.00,SCT,OVC,0.00,WeatherDisplay:10.37,2013-02-23 19:27:00,
2013-02-23 14:32:00,85.0,67.5,29.89,SSW,196,3.4,3.4,56,0.00,SCT,OVC,0.00,WeatherDisplay:10.37,2013-02-23 19:32:00,
2013-02-23 14:37:00,85.5,67.0,29.89,SW,222,5.0,5.0,54,0.00,SCT,OVC,0.00,WeatherDisplay:10.37,2013-02-23 19:37:00,
2013-02-23 14:42:00,85.4,66.3,29.89,SSW,201,3.4,3.4,53,0.00,SCT,OVC,0.00,WeatherDisplay:10.37,2013-02-23 19:42:00,
2013-02-23 14:47:00,85.1,67.1,29.89,SW,219,3.4,3.4,55,0.00,SCT,OVC,0.00,WeatherDisplay:10.37,2013-02-23 19:47:00,
2013-02-23 14:52:00,85.1,66.0,29.89,SSW,192,3.4,3.4,53,0.00,SCT,OVC,0.00,WeatherDisplay:10.37,2013-02-23 19:52:00,
2013-02-23 14:57:00,85.2,66.1,29.88,SW,226,5.0,5.0,53,0.00,SCT,OVC,0.00,WeatherDisplay:10.37,2013-02-23 19:57:00,
2013-02-23 15:02:00,85.4,66.9,29.88,WSW,246,3.4,3.4,54,0.00,SCT,OVC,0.00,WeatherDisplay:10.37,2013-02-23 20:02:00,
2013-02-23 15:07:00,85.7,65.5,29.88,NW,320,3.4,3.4,51,0.00,SCT,OVC,0.00,WeatherDisplay:10.37,2013-02-23 20:07:00,
2013-02-23 15:12:00,85.4,65.8,29.88,SSW,210,3.4,3.4,52,0.00,SCT,OVC,0.00,WeatherDisplay:10.37,2013-02-23 20:12:00,
2013-02-23 15:17:00,85.5,65.9,29.88,SW,227,4.6,4.6,52,0.00,SCT,OVC,0.00,WeatherDisplay:10.37,2013-02-23 20:17:00,
2013-02-23 15:22:00,85.6,65.4,29.88,South,189,5.8,5.8,51,0.00,SCT,OVC,0.00,WeatherDisplay:10.37,2013-02-23 20:22:00,
2013-02-23 15:27:00,85.7,65.5,29.88,South,171,8.1,8.1,51,0.00,SCT,OVC,0.00,WeatherDisplay:10.37,2013-02-23 20:27:00,
2013-02-23 15:32:00,85.2,65.6,29.88,WSW,247,4.6,4.6,52,0.00,SCT,OVC,0.00,WeatherDisplay:10.37,2013-02-23 20:32:00,
2013-02-23 15:37:00,85.1,65.5,29.88,SSW,212,5.8,5.8,52,0.00,SCT,OVC,0.00,WeatherDisplay:10.37,2013-02-23 20:37:00,
2013-02-23 15:42:00,85.4,65.2,29.88,SSW,199,5.8,5.8,51,0.00,SCT,OVC,0.00,WeatherDisplay:10.37,2013-02-23 20:42:00,
2013-02-23 15:47:00,85.3,65.1,29.88,SW,229,3.4,3.4,51,0.00,SCT,OVC,0.00,WeatherDisplay:10.37,2013-02-23 20:47:00,
2013-02-23 15:52:00,85.4,65.8,29.87,SSW,196,5.8,5.8,52,0.00,SCT,OVC,0.00,WeatherDisplay:10.37,2013-02-23 20:52:00,
2013-02-23 15:57:00,85.2,65.0,29.88,SW,220,3.4,3.4,51,0.00,SCT,OVC,0.00,WeatherDisplay:10.37,2013-02-23 20:57:00,
2013-02-23 16:02:00,85.2,65.0,29.87,SSW,206,4.6,4.6,51,0.00,FEW,OVC,0.00,WeatherDisplay:10.37,2013-02-23 21:02:00,
2013-02-23 16:07:00,85.1,64.4,29.87,SSW,203,4.6,4.6,50,0.00,FEW,OVC,0.00,WeatherDisplay:10.37,2013-02-23 21:07:00,
2013-02-23 16:12:00,85.0,64.3,29.87,SW,215,9.2,9.2,50,0.00,FEW,OVC,0.00,WeatherDisplay:10.37,2013-02-23 21:12:00,
2013-02-23 16:17:00,84.8,64.7,29.87,South,187,6.9,6.9,51,0.00,FEW,OVC,0.00,WeatherDisplay:10.37,2013-02-23 21:17:00,
2013-02-23 16:22:00,84.7,63.4,29.87,ENE,67,3.4,3.4,49,0.00,FEW,OVC,0.00,WeatherDisplay:10.37,2013-02-23 21:22:00,
2013-02-23 16:27:00,84.6,63.9,29.87,SSW,200,4.6,4.6,50,0.00,FEW,OVC,0.00,WeatherDisplay:10.37,2013-02-23 21:27:00,
2013-02-23 16:32:00,84.4,64.3,29.88,SSW,192,6.9,6.9,51,0.00,FEW,OVC,0.00,WeatherDisplay:10.37,2013-02-23 21:32:00,
2013-02-23 16:37:00,84.2,64.7,29.88,SSW,200,4.6,4.6,52,0.00,FEW,OVC,0.00,WeatherDisplay:10.37,2013-02-23 21:37:00,
2013-02-23 16:42:00,84.1,64.0,29.88,SSW,198,3.4,3.4,51,0.00,FEW,OVC,0.00,WeatherDisplay:10.37,2013-02-23 21:42:00,
2013-02-23 16:47:00,83.7,63.7,29.88,SSW,209,5.0,5.0,51,0.00,FEW,OVC,0.00,WeatherDisplay:10.37,2013-02-23 21:47:00,
2013-02-23 16:52:00,83.6,64.1,29.87,SSW,212,2.3,2.3,52,0.00,FEW,OVC,0.00,WeatherDisplay:10.37,2013-02-23 21:52:00,
2013-02-23 16:57:00,83.6,64.1,29.87,SW,228,3.4,3.4,52,0.00,FEW,OVC,0.00,WeatherDisplay:10.37,2013-02-23 21:57:00,
2013-02-23 17:02:00,83.5,64.6,29.87,SW,220,3.4,3.4,53,0.00,FEW,OVC,0.00,WeatherDisplay:10.37,2013-02-23 22:02:00,
2013-02-23 17:07:00,83.4,64.5,29.87,WSW,239,3.4,3.4,53,0.00,FEW,OVC,0.00,WeatherDisplay:10.37,2013-02-23 22:07:00,
2013-02-23 17:12:00,83.1,64.7,29.88,WSW,243,3.4,3.4,54,0.00,FEW,OVC,0.00,WeatherDisplay:10.37,2013-02-23 22:12:00,
2013-02-23 17:17:00,82.8,64.5,29.88,SSW,202,3.4,3.4,54,0.00,FEW,OVC,0.00,WeatherDisplay:10.37,2013-02-23 22:17:00,
2013-02-23 17:19:00,82.7,64.4,29.88,SSW,202,2.3,2.3,54,0.00,FEW,OVC,0.00,WeatherDisplay:10.37,2013-02-23 22:19:00,
2013-02-23 17:22:00,82.7,64.4,29.88,SSW,202,2.3,2.3,54,0.00,FEW,OVC,0.00,WeatherDisplay:10.37,2013-02-23 22:22:00,
2013-02-23 17:27:00,82.7,64.4,29.88,SSW,202,2.3,2.3,54,0.00,FEW,OVC,0.00,WeatherDisplay:10.37,2013-02-23 22:27:00,
2013-02-23 17:32:00,82.3,64.0,29.88,WSW,239,4.0,4.0,54,0.00,CLR,OVC,0.00,WeatherDisplay:10.37,2013-02-23 22:32:00,
2013-02-23 17:37:00,82.0,63.7,29.88,SW,220,3.4,3.4,54,0.00,FEW,OVC,0.00,WeatherDisplay:10.37,2013-02-23 22:37:00,
2013-02-23 17:42:00,81.9,64.1,29.88,SSW,196,2.3,2.3,55,0.00,FEW,OVC,0.00,WeatherDisplay:10.37,2013-02-23 22:42:00,
2013-02-23 17:47:00,81.6,64.4,29.88,SSW,196,2.3,2.3,56,0.00,FEW,OVC,0.00,WeatherDisplay:10.37,2013-02-23 22:47:00,
2013-02-23 17:52:00,81.3,64.1,29.88,SSW,212,2.3,2.3,56,0.00,FEW,OVC,0.00,WeatherDisplay:10.37,2013-02-23 22:52:00,
2013-02-23 17:57:00,81.2,64.0,29.88,WSW,245,3.4,3.4,56,0.00,FEW,OVC,0.00,WeatherDisplay:10.37,2013-02-23 22:57:00,
2013-02-23 18:02:00,81.0,64.3,29.88,SW,218,2.3,2.3,57,0.00,FEW,OVC,0.00,WeatherDisplay:10.37,2013-02-23 23:02:00,
2013-02-23 18:07:00,80.8,64.6,29.89,SW,219,2.3,2.3,58,0.00,FEW,OVC,0.00,WeatherDisplay:10.37,2013-02-23 23:07:00,
2013-02-23 18:12:00,80.6,64.5,29.89,SSW,202,3.4,3.4,58,0.00,FEW,OVC,0.00,WeatherDisplay:10.37,2013-02-23 23:12:00,
2013-02-23 18:17:00,80.4,64.8,29.89,SSW,192,2.3,2.3,59,0.00,CLR,OVC,0.00,WeatherDisplay:10.37,2013-02-23 23:17:00,
2013-02-23 18:22:00,80.1,65.0,29.89,SSW,212,2.3,2.3,60,0.00,CLR,OVC,0.00,WeatherDisplay:10.37,2013-02-23 23:22:00,
2013-02-23 18:27:00,79.8,65.2,29.89,SW,220,3.4,3.4,61,0.00,CLR,OVC,0.00,WeatherDisplay:10.37,2013-02-23 23:27:00,
2013-02-23 18:32:00,79.5,64.9,29.89,SSW,204,2.3,2.3,61,0.00,CLR,OVC,0.00,WeatherDisplay:10.37,2013-02-23 23:32:00,
2013-02-23 18:37:00,79.2,65.1,29.89,SSW,211,2.3,2.3,62,0.00,CLR,OVC,0.00,WeatherDisplay:10.37,2013-02-23 23:37:00,
2013-02-23 18:42:00,79.0,65.3,29.90,SSW,203,2.0,2.0,63,0.00,CLR,OVC,0.00,WeatherDisplay:10.37,2013-02-23 23:42:00,
2013-02-23 18:47:00,78.7,65.5,29.90,SSW,206,1.1,1.1,64,0.00,CLR,OVC,0.00,WeatherDisplay:10.37,2013-02-23 23:47:00,
2013-02-23 18:52:00,78.4,65.2,29.90,West,260,1.1,1.1,64,0.00,CLR,OVC,0.00,WeatherDisplay:10.37,2013-02-23 23:52:00,
2013-02-23 18:57:00,78.1,65.4,29.90,West,260,1.1,1.1,65,0.00,CLR,OVC,0.00,WeatherDisplay:10.37,2013-02-23 23:57:00,
2013-02-23 19:02:00,77.8,65.5,29.91,SW,234,1.1,1.1,66,0.00,CLR,OVC,0.00,WeatherDisplay:10.37,2013-02-24 00:02:00,
2013-02-23 19:07:00,77.5,65.2,29.91,SW,215,1.1,1.1,66,0.00,CLR,OVC,0.00,WeatherDisplay:10.37,2013-02-24 00:07:00,
2013-02-23 19:12:00,77.3,65.5,29.91,SSW,208,2.3,2.3,67,0.00,CLR,OVC,0.00,WeatherDisplay:10.37,2013-02-24 00:12:00,
2013-02-23 19:17:00,77.3,65.5,29.91,SW,215,2.3,2.3,67,0.00,CLR,OVC,0.00,WeatherDisplay:10.37,2013-02-24 00:17:00,
2013-02-23 19:22:00,77.3,65.5,29.91,SW,216,2.3,2.3,67,0.00,CLR,OVC,0.00,WeatherDisplay:10.37,2013-02-24 00:22:00,
2013-02-23 19:27:00,77.2,65.4,29.91,SSW,208,2.0,2.0,67,0.00,CLR,OVC,0.00,WeatherDisplay:10.37,2013-02-24 00:27:00,
2013-02-23 19:32:00,77.0,65.6,29.91,SSW,205,1.1,1.1,68,0.00,CLR,OVC,0.00,WeatherDisplay:10.37,2013-02-24 00:32:00,
2013-02-23 19:37:00,76.9,65.5,29.91,SW,216,1.1,1.1,68,0.00,CLR,OVC,0.00,WeatherDisplay:10.37,2013-02-24 00:37:00,
2013-02-23 19:42:00,76.7,65.8,29.91,SSW,213,1.1,1.1,69,0.00,CLR,OVC,0.00,WeatherDisplay:10.37,2013-02-24 00:42:00,
2013-02-23 19:47:00,76.5,66.0,29.91,SW,220,1.1,1.1,70,0.00,CLR,OVC,0.00,WeatherDisplay:10.37,2013-02-24 00:47:00,
2013-02-23 19:52:00,76.4,65.9,29.91,SW,215,1.1,1.1,70,0.00,CLR,OVC,0.00,WeatherDisplay:10.37,2013-02-24 00:52:00,
2013-02-23 19:57:00,76.2,66.1,29.91,SW,218,1.1,1.1,71,0.00,CLR,OVC,0.00,WeatherDisplay:10.37,2013-02-24 00:57:00,
2013-02-23 20:02:00,76.0,65.9,29.91,SSW,212,1.1,1.1,71,0.00,CLR,OVC,0.00,WeatherDisplay:10.37,2013-02-24 01:02:00,
2013-02-23 20:07:00,75.8,66.1,29.91,SW,217,1.1,1.1,72,0.00,CLR,OVC,0.00,WeatherDisplay:10.37,2013-02-24 01:07:00,
2013-02-23 20:12:00,75.6,66.3,29.91,SW,215,1.1,1.1,73,0.00,CLR,OVC,0.00,WeatherDisplay:10.37,2013-02-24 01:12:00,
2013-02-23 20:17:00,75.4,66.5,29.91,SSW,212,1.1,1.1,74,0.00,CLR,OVC,0.00,WeatherDisplay:10.37,2013-02-24 01:17:00,
2013-02-23 20:22:00,75.2,66.3,29.91,SSW,212,1.1,1.1,74,0.00,CLR,OVC,0.00,WeatherDisplay:10.37,2013-02-24 01:22:00,
2013-02-23 20:27:00,75.0,66.5,29.91,SW,215,1.1,1.1,75,0.00,CLR,OVC,0.00,WeatherDisplay:10.37,2013-02-24 01:27:00,
2013-02-23 20:32:00,74.8,66.7,29.91,SW,215,1.1,1.1,76,0.00,CLR,OVC,0.00,WeatherDisplay:10.37,2013-02-24 01:32:00,
2013-02-23 20:37:00,74.7,67.0,29.91,SW,215,1.1,1.1,77,0.00,CLR,OVC,0.00,WeatherDisplay:10.37,2013-02-24 01:37:00,
2013-02-23 20:42:00,74.6,67.3,29.91,SW,222,1.1,1.1,78,0.00,CLR,OVC,0.00,WeatherDisplay:10.37,2013-02-24 01:42:00,
2013-02-23 20:47:00,74.5,67.2,29.91,SSW,206,2.3,2.3,78,0.00,CLR,OVC,0.00,WeatherDisplay:10.37,2013-02-24 01:47:00,
2013-02-23 20:52:00,74.3,67.4,29.91,SSW,206,2.3,2.3,79,0.00,CLR,OVC,0.00,WeatherDisplay:10.37,2013-02-24 01:52:00,
2013-02-23 20:57:00,74.2,67.3,29.92,SSW,210,2.3,2.3,79,0.00,CLR,OVC,0.00,WeatherDisplay:10.37,2013-02-24 01:57:00,
2013-02-23 21:02:00,74.0,67.4,29.92,SSW,208,2.3,2.3,80,0.00,CLR,OVC,0.00,WeatherDisplay:10.37,2013-02-24 02:02:00,
2013-02-23 21:07:00,73.9,67.3,29.92,SSW,208,1.1,1.1,80,0.00,CLR,OVC,0.00,WeatherDisplay:10.37,2013-02-24 02:07:00,
2013-02-23 21:12:00,73.8,67.6,29.92,SSW,196,1.1,1.1,81,0.00,CLR,OVC,0.00,WeatherDisplay:10.37,2013-02-24 02:12:00,
2013-02-23 21:17:00,73.7,67.5,29.92,SSW,212,1.1,1.1,81,0.00,CLR,OVC,0.00,WeatherDisplay:10.37,2013-02-24 02:17:00,
2013-02-23 21:22:00,73.5,67.7,29.92,SW,219,1.1,1.1,82,0.00,CLR,OVC,0.00,WeatherDisplay:10.37,2013-02-24 02:22:00,
2013-02-23 21:27:00,73.3,67.5,29.93,SW,220,1.1,1.1,82,0.00,CLR,OVC,0.00,WeatherDisplay:10.37,2013-02-24 02:27:00,
2013-02-23 21:32:00,73.2,67.7,29.93,SSW,206,1.1,1.1,83,0.00,CLR,OVC,0.00,WeatherDisplay:10.37,2013-02-24 02:32:00,
2013-02-23 21:37:00,73.1,67.6,29.93,SSW,210,2.3,2.3,83,0.00,CLR,OVC,0.00,WeatherDisplay:10.37,2013-02-24 02:37:00,
2013-02-23 21:42:00,73.0,67.5,29.93,SW,215,1.1,1.1,83,0.00,CLR,OVC,0.00,WeatherDisplay:10.37,2013-02-24 02:42:00,
2013-02-23 21:47:00,72.9,67.4,29.93,SW,215,1.1,1.1,83,0.00,CLR,OVC,0.00,WeatherDisplay:10.37,2013-02-24 02:47:00,
2013-02-23 21:52:00,72.8,67.7,29.93,SSW,212,1.1,1.1,84,0.00,CLR,OVC,0.00,WeatherDisplay:10.37,2013-02-24 02:52:00,
2013-02-23 21:57:00,72.7,67.6,29.93,SSW,208,2.3,2.3,84,0.00,CLR,OVC,0.00,WeatherDisplay:10.37,2013-02-24 02:57:00,
2013-02-23 22:02:00,72.6,67.5,29.93,SW,220,1.1,1.1,84,0.00,CLR,OVC,0.00,WeatherDisplay:10.37,2013-02-24 03:02:00,
2013-02-23 22:07:00,72.4,67.6,29.93,SW,218,1.1,1.1,85,0.00,CLR,OVC,0.00,WeatherDisplay:10.37,2013-02-24 03:07:00,
2013-02-23 22:12:00,72.3,67.5,29.93,SSW,202,2.3,2.3,85,0.00,CLR,OVC,0.00,WeatherDisplay:10.37,2013-02-24 03:12:00,
2013-02-23 22:17:00,72.3,67.5,29.93,SSW,208,2.3,2.3,85,0.00,CLR,OVC,0.00,WeatherDisplay:10.37,2013-02-24 03:17:00,
2013-02-23 22:22:00,72.2,67.8,29.93,SSW,211,2.3,2.3,86,0.00,CLR,OVC,0.00,WeatherDisplay:10.37,2013-02-24 03:22:00,
2013-02-23 22:27:00,72.0,67.6,29.93,SSW,206,1.1,1.1,86,0.00,CLR,OVC,0.00,WeatherDisplay:10.37,2013-02-24 03:27:00,
2013-02-23 22:32:00,72.0,67.6,29.93,SSW,201,2.3,2.3,86,0.00,CLR,OVC,0.00,WeatherDisplay:10.37,2013-02-24 03:32:00,
2013-02-23 22:34:00,71.9,67.5,29.93,SSW,196,2.3,2.3,86,0.00,CLR,OVC,0.00,WeatherDisplay:10.37,2013-02-24 03:34:00,
2013-02-23 22:37:00,71.9,67.5,29.93,SSW,196,2.3,2.3,86,0.00,CLR,OVC,0.00,WeatherDisplay:10.37,2013-02-24 03:37:00,
2013-02-23 22:42:00,71.9,67.5,29.93,SSW,196,2.3,2.3,86,0.00,CLR,OVC,0.00,WeatherDisplay:10.37,2013-02-24 03:42:00,
2013-02-23 22:48:00,71.7,67.6,29.93,SSW,208,2.0,2.0,87,0.00,CLR,OVC,0.00,WeatherDisplay:10.37,2013-02-24 03:48:00,
2013-02-23 22:53:00,71.5,67.4,29.92,SSW,207,1.1,1.1,87,0.00,CLR,OVC,0.00,WeatherDisplay:10.37,2013-02-24 03:53:00,
2013-02-23 22:58:00,71.4,67.3,29.92,SSW,195,1.1,1.1,87,0.00,CLR,OVC,0.00,WeatherDisplay:10.37,2013-02-24 03:58:00,
2013-02-23 23:03:00,71.4,67.3,29.92,SSW,201,2.3,2.3,87,0.00,CLR,OVC,0.00,WeatherDisplay:10.37,2013-02-24 04:03:00,
2013-02-23 23:08:00,71.4,67.3,29.93,SSW,201,2.3,2.3,87,0.00,CLR,OVC,0.00,WeatherDisplay:10.37,2013-02-24 04:08:00,
2013-02-23 23:13:00,71.4,67.3,29.93,SSW,200,1.1,1.1,87,0.00,CLR,OVC,0.00,WeatherDisplay:10.37,2013-02-24 04:13:00,
2013-02-23 23:18:00,71.3,67.2,29.92,SSW,197,1.1,1.1,87,0.00,CLR,OVC,0.00,WeatherDisplay:10.37,2013-02-24 04:18:00,
2013-02-23 23:23:00,71.3,67.2,29.92,SSW,196,1.1,1.1,87,0.00,CLR,OVC,0.00,WeatherDisplay:10.37,2013-02-24 04:23:00,
2013-02-23 23:28:00,71.2,67.5,29.92,SSW,201,2.3,2.3,88,0.00,CLR,OVC,0.00,WeatherDisplay:10.37,2013-02-24 04:28:00,
2013-02-23 23:33:00,71.1,67.4,29.92,SSW,201,2.3,2.3,88,0.00,CLR,OVC,0.00,WeatherDisplay:10.37,2013-02-24 04:33:00,
2013-02-23 23:38:00,71.0,67.3,29.92,SSW,200,2.3,2.3,88,0.00,CLR,OVC,0.00,WeatherDisplay:10.37,2013-02-24 04:38:00,
2013-02-23 23:43:00,71.0,67.3,29.92,SSW,202,2.3,2.3,88,0.00,CLR,OVC,0.00,WeatherDisplay:10.37,2013-02-24 04:43:00,
2013-02-23 23:48:00,70.9,67.2,29.92,South,187,2.3,2.3,88,0.00,CLR,OVC,0.00,WeatherDisplay:10.37,2013-02-24 04:48:00,
2013-02-23 23:53:00,70.9,67.2,29.92,South,182,2.3,2.3,88,0.00,CLR,OVC,0.00,WeatherDisplay:10.37,2013-02-24 04:53:00,
2013-02-23 23:58:00,70.8,67.1,29.91,SSW,197,2.3,2.3,88,0.00,CLR,OVC,0.00,WeatherDisplay:10.37,2013-02-24 04:58:00,